^^
Your Local Weather - Clay, NY Station Historical Data
Daily Summary for January 7, 2017 Units:  English    Metric   Both
« Previous Day
Next Day »
Daily Weekly Monthly Yearly Custom
  High: Low: Average:
Temperature: 23.8 °F 12.4 °F 17.1 °F
Dew Point: 11.7 °F 2.8 °F 7.2 °F
Humidity: 76% 56% 65%
Wind Speed: 5.0mph 0.0mph 1.5mph
Wind Gust: 13.0mph - -
Wind- - West
Pressure: 30.34 in 30.17 in -
Precipitation: 0.00 in    
Historical Graphs
 
 
Tabular Data for January 7, 2017
Time Temperature Dew Point Pressure Wind Wind Speed Wind Gust Humidity Rainfall Rate (Hourly) solar
00:02 13.7 °F 6.6 °F 30.28 in SW 2.0 mph 2.0 mph 73% 0.00 in 0 W/m2
00:08 13.7 °F 6.3 °F 30.27 in SW 2.0 mph 5.0 mph 72% 0.00 in 0 W/m2
00:14 13.7 °F 6.3 °F 30.27 in SW 2.0 mph 3.0 mph 72% 0.00 in 0 W/m2
00:20 13.8 °F 6.1 °F 30.27 in SW 2.0 mph 2.0 mph 71% 0.00 in 0 W/m2
00:26 13.8 °F 6.1 °F 30.27 in SW 3.0 mph 4.0 mph 71% 0.00 in 0 W/m2
00:32 13.9 °F 5.9 °F 30.27 in WSW 3.0 mph 3.0 mph 70% 0.00 in 0 W/m2
00:38 14.1 °F 5.8 °F 30.28 in WSW 3.0 mph 3.0 mph 69% 0.00 in 0 W/m2
00:44 14.2 °F 5.6 °F 30.28 in WSW 3.0 mph 4.0 mph 68% 0.00 in 0 W/m2
00:50 14.3 °F 5.3 °F 30.28 in SW 3.0 mph 5.0 mph 67% 0.00 in 0 W/m2
00:56 14.5 °F 5.2 °F 30.28 in West 3.0 mph 6.0 mph 66% 0.00 in 0 W/m2
01:02 14.7 °F 5.4 °F 30.29 in SSW 2.0 mph 5.0 mph 66% 0.00 in 0 W/m2
01:08 15.0 °F 5.3 °F 30.29 in SW 2.0 mph 6.0 mph 65% 0.00 in 0 W/m2
01:14 15.4 °F 5.4 °F 30.29 in SW 3.0 mph 6.0 mph 64% 0.00 in 0 W/m2
01:20 15.6 °F 5.2 °F 30.29 in West 4.0 mph 4.0 mph 63% 0.00 in 0 W/m2
01:26 15.7 °F 5.0 °F 30.29 in West 3.0 mph 5.0 mph 62% 0.00 in 0 W/m2
01:32 15.9 °F 4.8 °F 30.29 in West 3.0 mph 7.0 mph 61% 0.00 in 0 W/m2
01:38 15.9 °F 4.4 °F 30.29 in SW 3.0 mph 7.0 mph 60% 0.00 in 0 W/m2
01:44 15.9 °F 4.4 °F 30.29 in SW 3.0 mph 4.0 mph 60% 0.00 in 0 W/m2
01:50 15.9 °F 4.4 °F 30.30 in WSW 3.0 mph 3.0 mph 60% 0.00 in 0 W/m2
01:56 15.9 °F 3.7 °F 30.29 in SSW 3.0 mph 4.0 mph 58% 0.00 in 0 W/m2
02:02 15.7 °F 3.9 °F 30.29 in SW 3.0 mph 3.0 mph 59% 0.00 in 0 W/m2
02:08 15.5 °F 3.7 °F 30.29 in West 2.0 mph 3.0 mph 59% 0.00 in 0 W/m2
02:14 15.3 °F 3.5 °F 30.30 in SW 3.0 mph 6.0 mph 59% 0.00 in 0 W/m2
02:20 15.1 °F 3.7 °F 30.30 in SW 3.0 mph 3.0 mph 60% 0.00 in 0 W/m2
02:26 14.9 °F 3.5 °F 30.30 in SW 2.0 mph 3.0 mph 60% 0.00 in 0 W/m2
02:32 14.8 °F 3.4 °F 30.30 in SW 2.0 mph 2.0 mph 60% 0.00 in 0 W/m2
02:38 14.6 °F 3.2 °F 30.30 in WSW 2.0 mph 5.0 mph 60% 0.00 in 0 W/m2
02:44 14.6 °F 3.2 °F 30.31 in West 2.0 mph 5.0 mph 60% 0.00 in 0 W/m2
02:50 14.4 °F 3.0 °F 30.30 in West 2.0 mph 2.0 mph 60% 0.00 in 0 W/m2
02:56 14.3 °F 2.9 °F 30.30 in SW 2.0 mph 5.0 mph 60% 0.00 in 0 W/m2
03:02 14.2 °F 2.8 °F 30.31 in West 2.0 mph 2.0 mph 60% 0.00 in 0 W/m2
03:08 14.1 °F 3.1 °F 30.31 in West 1.0 mph 2.0 mph 61% 0.00 in 0 W/m2
03:14 13.9 °F 3.3 °F 30.31 in Calm   1.0 mph 62% 0.00 in 0 W/m2
03:20 13.7 °F 3.1 °F 30.31 in Calm     62% 0.00 in 0 W/m2
03:26 13.4 °F 2.8 °F 30.31 in Calm   1.0 mph 62% 0.00 in 0 W/m2
03:32 13.3 °F 3.0 °F 30.31 in Calm     63% 0.00 in 0 W/m2
03:38 12.9 °F 3.3 °F 30.31 in Calm     65% 0.00 in 0 W/m2
03:44 12.7 °F 4.1 °F 30.31 in Calm     68% 0.00 in 0 W/m2
03:50 12.4 °F 3.8 °F 30.31 in Calm     68% 0.00 in 0 W/m2
03:56 12.5 °F 3.9 °F 30.31 in Calm     68% 0.00 in 0 W/m2
04:02 12.7 °F 3.8 °F 30.31 in Calm     67% 0.00 in 0 W/m2
04:08 12.9 °F 4.0 °F 30.31 in Calm     67% 0.00 in 0 W/m2
04:14 12.9 °F 3.7 °F 30.31 in Calm     66% 0.00 in 0 W/m2
04:20 13.0 °F 4.1 °F 30.31 in Calm     67% 0.00 in 0 W/m2
04:26 13.1 °F 4.5 °F 30.31 in Calm     68% 0.00 in 0 W/m2
04:32 13.4 °F 4.1 °F 30.31 in Calm     66% 0.00 in 0 W/m2
04:38 13.8 °F 4.2 °F 30.32 in Calm     65% 0.00 in 0 W/m2
04:44 14.1 °F 4.5 °F 30.32 in West 1.0 mph 1.0 mph 65% 0.00 in 0 W/m2
04:50 14.3 °F 5.0 °F 30.32 in West 1.0 mph 1.0 mph 66% 0.00 in 0 W/m2
04:56 14.5 °F 4.9 °F 30.31 in West 1.0 mph 3.0 mph 65% 0.00 in 0 W/m2
05:02 14.6 °F 4.6 °F 30.32 in West 1.0 mph 1.0 mph 64% 0.00 in 0 W/m2
05:08 14.6 °F 4.6 °F 30.32 in West 1.0 mph 2.0 mph 64% 0.00 in 0 W/m2
05:14 14.6 °F 4.6 °F 30.32 in West 1.0 mph 2.0 mph 64% 0.00 in 0 W/m2
05:20 14.6 °F 4.6 °F 30.32 in SSW 1.0 mph 1.0 mph 64% 0.00 in 0 W/m2
05:26 14.7 °F 5.1 °F 30.32 in SSW 1.0 mph 2.0 mph 65% 0.00 in 0 W/m2
05:32 14.7 °F 5.1 °F 30.33 in SSW 1.0 mph 3.0 mph 65% 0.00 in 0 W/m2
05:38 14.8 °F 5.2 °F 30.33 in SW 1.0 mph 4.0 mph 65% 0.00 in 0 W/m2
05:44 14.9 °F 4.9 °F 30.34 in SW 1.0 mph 2.0 mph 64% 0.00 in 0 W/m2
05:50 15.0 °F 5.0 °F 30.33 in SW 1.0 mph 1.0 mph 64% 0.00 in 0 W/m2
05:56 15.0 °F 5.0 °F 30.33 in Calm   2.0 mph 64% 0.00 in 0 W/m2
06:02 15.1 °F 4.8 °F 30.33 in SW 1.0 mph 1.0 mph 63% 0.00 in 0 W/m2
06:08 15.0 °F 4.7 °F 30.33 in WSW 1.0 mph 4.0 mph 63% 0.00 in 0 W/m2
06:14 15.1 °F 4.8 °F 30.33 in WSW 1.0 mph 1.0 mph 63% 0.00 in 0 W/m2
06:20 15.1 °F 4.4 °F 30.33 in West 1.0 mph 1.0 mph 62% 0.00 in 0 W/m2
06:26 15.2 °F 4.9 °F 30.33 in West 1.0 mph 1.0 mph 63% 0.00 in 0 W/m2
06:32 15.2 °F 4.5 °F 30.32 in West 1.0 mph 4.0 mph 62% 0.00 in 0 W/m2
06:38 15.1 °F 4.4 °F 30.33 in West 1.0 mph 4.0 mph 62% 0.00 in 0 W/m2
06:44 15.0 °F 5.0 °F 30.33 in SW 1.0 mph 5.0 mph 64% 0.00 in 0 W/m2
06:50 14.7 °F 6.0 °F 30.33 in SW 3.0 mph 3.0 mph 68% 0.00 in 0 W/m2
06:56 14.5 °F 6.5 °F 30.33 in SW 2.0 mph 3.0 mph 70% 0.00 in 0 W/m2
07:02 14.2 °F 6.8 °F 30.33 in WSW 1.0 mph 2.0 mph 72% 0.00 in 0 W/m2
07:08 14.0 °F 6.9 °F 30.33 in WSW 2.0 mph 2.0 mph 73% 0.00 in 0 W/m2
07:14 13.9 °F 7.1 °F 30.34 in WSW 1.0 mph 1.0 mph 74% 0.00 in 0 W/m2
07:20 13.8 °F 7.0 °F 30.34 in Calm   1.0 mph 74% 0.00 in 0 W/m2
07:26 13.7 °F 6.6 °F 30.34 in Calm   2.0 mph 73% 0.00 in 0 W/m2
07:32 13.6 °F 6.5 °F 30.34 in Calm     73% 0.00 in 0 W/m2
07:38 13.4 °F 6.4 °F 30.34 in Calm     73% 0.00 in 0 W/m2
07:44 13.2 °F 6.5 °F 30.33 in Calm     74% 0.00 in 5 W/m2
07:50 13.3 °F 6.6 °F 30.33 in Calm     74% 0.00 in 11 W/m2
07:56 13.4 °F 7.2 °F 30.32 in Calm     76% 0.00 in 21 W/m2
08:02 13.4 °F 7.2 °F 30.32 in Calm     76% 0.00 in 40 W/m2
08:08 13.7 °F 7.2 °F 30.32 in Calm   2.0 mph 75% 0.00 in 51 W/m2
08:14 14.2 °F 7.1 °F 30.33 in Calm     73% 0.00 in 49 W/m2
08:20 14.6 °F 7.5 °F 30.33 in Calm     73% 0.00 in 56 W/m2
08:26 14.9 °F 6.6 °F 30.33 in Calm     69% 0.00 in 70 W/m2
08:32 15.2 °F 6.5 °F 30.33 in Calm     68% 0.00 in 88 W/m2
08:38 15.5 °F 6.2 °F 30.33 in West 1.0 mph 2.0 mph 66% 0.00 in 84 W/m2
08:44 15.7 °F 6.3 °F 30.33 in West 1.0 mph 1.0 mph 66% 0.00 in 102 W/m2
08:50 15.8 °F 5.8 °F 30.32 in Calm   1.0 mph 64% 0.00 in 79 W/m2
08:56 15.8 °F 6.1 °F 30.33 in SW 1.0 mph 4.0 mph 65% 0.00 in 72 W/m2
09:02 15.9 °F 6.2 °F 30.34 in Calm   3.0 mph 65% 0.00 in 76 W/m2
09:08 16.0 °F 6.6 °F 30.33 in SW 1.0 mph 3.0 mph 66% 0.00 in 97 W/m2
09:14 16.0 °F 7.0 °F 30.34 in WNW 1.0 mph 2.0 mph 67% 0.00 in 95 W/m2
09:20 16.1 °F 7.1 °F 30.34 in WSW 1.0 mph 1.0 mph 67% 0.00 in 98 W/m2
09:26 16.2 °F 7.2 °F 30.34 in WSW 1.0 mph 1.0 mph 67% 0.00 in 97 W/m2
09:32 16.1 °F 6.7 °F 30.34 in WSW 1.0 mph 3.0 mph 66% 0.00 in 114 W/m2
09:38 16.2 °F 6.8 °F 30.34 in WSW 1.0 mph 4.0 mph 66% 0.00 in 123 W/m2
09:44 16.2 °F 6.8 °F 30.34 in WNW 1.0 mph 2.0 mph 66% 0.00 in 142 W/m2
09:50 16.4 °F 7.3 °F 30.34 in WNW 1.0 mph 1.0 mph 67% 0.00 in 148 W/m2
09:56 16.7 °F 8.0 °F 30.34 in WSW 1.0 mph 2.0 mph 68% 0.00 in 214 W/m2
10:02 17.2 °F 7.8 °F 30.34 in West 1.0 mph 4.0 mph 66% 0.00 in 283 W/m2
10:08 17.7 °F 8.9 °F 30.34 in West 2.0 mph 4.0 mph 68% 0.00 in 255 W/m2
10:14 18.2 °F 8.7 °F 30.34 in SW 1.0 mph 2.0 mph 66% 0.00 in 396 W/m2
10:20 18.5 °F 8.7 °F 30.34 in SW 1.0 mph 1.0 mph 65% 0.00 in 443 W/m2
10:26 18.6 °F 8.8 °F 30.34 in SSW 1.0 mph 2.0 mph 65% 0.00 in 151 W/m2
10:32 17.6 °F 8.2 °F 30.34 in SSW 1.0 mph 1.0 mph 66% 0.00 in 181 W/m2
10:38 17.7 °F 8.9 °F 30.34 in SSW 1.0 mph 2.0 mph 68% 0.00 in 171 W/m2
10:44 17.8 °F 8.4 °F 30.34 in SSW 1.0 mph 1.0 mph 66% 0.00 in 341 W/m2
10:50 19.4 °F 9.9 °F 30.34 in SW 1.0 mph 1.0 mph 66% 0.00 in 410 W/m2
10:56 18.4 °F 8.6 °F 30.33 in WSW 2.0 mph 6.0 mph 65% 0.00 in 244 W/m2
11:02 18.6 °F 9.5 °F 30.33 in WSW 2.0 mph 2.0 mph 67% 0.00 in 271 W/m2
11:08 18.8 °F 9.3 °F 30.33 in West 1.0 mph 3.0 mph 66% 0.00 in 239 W/m2
11:14 18.9 °F 9.7 °F 30.33 in WNW 1.0 mph 3.0 mph 67% 0.00 in 218 W/m2
11:20 19.2 °F 10.0 °F 30.32 in WSW 1.0 mph 1.0 mph 67% 0.00 in 239 W/m2
11:26 19.3 °F 9.8 °F 30.32 in SW 1.0 mph 4.0 mph 66% 0.00 in 221 W/m2
11:32 18.9 °F 9.7 °F 30.32 in SW 2.0 mph 2.0 mph 67% 0.00 in 223 W/m2
11:38 19.1 °F 9.9 °F 30.32 in WSW 1.0 mph 3.0 mph 67% 0.00 in 257 W/m2
11:44 19.2 °F 9.7 °F 30.32 in WSW 1.0 mph 1.0 mph 66% 0.00 in 251 W/m2
11:50 19.6 °F 10.1 °F 30.31 in WSW 1.0 mph 1.0 mph 66% 0.00 in 241 W/m2
11:56 19.9 °F 10.4 °F 30.31 in West 1.0 mph 3.0 mph 66% 0.00 in 269 W/m2
12:02 19.5 °F 10.0 °F 30.30 in West 1.0 mph 1.0 mph 66% 0.00 in 230 W/m2
12:08 19.8 °F 10.3 °F 30.30 in West 1.0 mph 2.0 mph 66% 0.00 in 232 W/m2
12:14 20.0 °F 10.8 °F 30.30 in West 1.0 mph 2.0 mph 67% 0.00 in 251 W/m2
12:20 20.1 °F 10.2 °F 30.29 in West 1.0 mph 1.0 mph 65% 0.00 in 295 W/m2
12:26 20.6 °F 10.7 °F 30.29 in West 1.0 mph 3.0 mph 65% 0.00 in 336 W/m2
12:32 20.5 °F 10.9 °F 30.29 in West 1.0 mph 2.0 mph 66% 0.00 in 350 W/m2
12:38 20.6 °F 11.0 °F 30.28 in West 2.0 mph 3.0 mph 66% 0.00 in 264 W/m2
12:44 20.4 °F 10.8 °F 30.28 in West 2.0 mph 2.0 mph 66% 0.00 in 221 W/m2
12:50 21.0 °F 10.7 °F 30.27 in West 1.0 mph 1.0 mph 64% 0.00 in 320 W/m2
12:56 20.8 °F 10.9 °F 30.27 in Calm   1.0 mph 65% 0.00 in 227 W/m2
13:02 20.3 °F 10.4 °F 30.26 in West 1.0 mph 3.0 mph 65% 0.00 in 297 W/m2
13:08 21.0 °F 11.4 °F 30.26 in NNW 1.0 mph 4.0 mph 66% 0.00 in 283 W/m2
13:14 21.5 °F 11.2 °F 30.26 in NNW 2.0 mph 3.0 mph 64% 0.00 in 401 W/m2
13:20 21.4 °F 11.5 °F 30.26 in WSW 2.0 mph 2.0 mph 65% 0.00 in 144 W/m2
13:26 20.6 °F 11.0 °F 30.26 in WSW 1.0 mph 2.0 mph 66% 0.00 in 401 W/m2
13:32 20.8 °F 11.2 °F 30.26 in WSW 1.0 mph 1.0 mph 66% 0.00 in 362 W/m2
13:38 21.6 °F 10.9 °F 30.26 in WNW 1.0 mph 2.0 mph 63% 0.00 in 362 W/m2
13:44 21.9 °F 11.6 °F 30.25 in NW 2.0 mph 2.0 mph 64% 0.00 in 406 W/m2
13:50 23.1 °F 11.3 °F 30.25 in NW 2.0 mph 2.0 mph 60% 0.00 in 445 W/m2
13:56 23.2 °F 11.0 °F 30.24 in NW 1.0 mph 3.0 mph 59% 0.00 in 404 W/m2
14:02 23.2 °F 11.0 °F 30.24 in NW 1.0 mph 2.0 mph 59% 0.00 in 418 W/m2
14:08 22.6 °F 10.8 °F 30.24 in NW 2.0 mph 4.0 mph 60% 0.00 in 387 W/m2
14:14 22.5 °F 10.3 °F 30.24 in SSW 1.0 mph 2.0 mph 59% 0.00 in 387 W/m2
14:20 22.9 °F 11.4 °F 30.23 in SSE 1.0 mph 1.0 mph 61% 0.00 in 387 W/m2
14:26 22.4 °F 11.7 °F 30.23 in West 1.0 mph 1.0 mph 63% 0.00 in 429 W/m2
14:32 23.6 °F 11.4 °F 30.23 in WNW 1.0 mph 1.0 mph 59% 0.00 in 418 W/m2
14:38 23.8 °F 10.4 °F 30.23 in NW 1.0 mph 3.0 mph 56% 0.00 in 346 W/m2
14:44 23.4 °F 11.2 °F 30.23 in WSW 2.0 mph 2.0 mph 59% 0.00 in 332 W/m2
14:50 23.3 °F 10.7 °F 30.23 in NNW 1.0 mph 2.0 mph 58% 0.00 in 313 W/m2
14:56 23.1 °F 10.9 °F 30.23 in NW 2.0 mph 3.0 mph 59% 0.00 in 304 W/m2
15:02 22.7 °F 10.9 °F 30.23 in North 3.0 mph 4.0 mph 60% 0.00 in 257 W/m2
15:08 22.4 °F 10.2 °F 30.23 in NNW 3.0 mph 4.0 mph 59% 0.00 in 237 W/m2
15:14 21.6 °F 9.8 °F 30.23 in NNW 3.0 mph 4.0 mph 60% 0.00 in 49 W/m2
15:20 21.0 °F 10.0 °F 30.23 in NNW 2.0 mph 2.0 mph 62% 0.00 in 35 W/m2
15:26 20.8 °F 9.8 °F 30.23 in NNW 1.0 mph 2.0 mph 62% 0.00 in 33 W/m2
15:32 20.7 °F 9.7 °F 30.23 in NNW 2.0 mph 3.0 mph 62% 0.00 in 35 W/m2
15:38 20.6 °F 10.3 °F 30.23 in NNW 1.0 mph 3.0 mph 64% 0.00 in 33 W/m2
15:44 20.5 °F 9.9 °F 30.23 in NNW 1.0 mph 4.0 mph 63% 0.00 in 39 W/m2
15:50 20.4 °F 10.1 °F 30.23 in NNW 1.0 mph 1.0 mph 64% 0.00 in 35 W/m2
15:56 20.3 °F 10.1 °F 30.23 in Calm   1.0 mph 64% 0.00 in 42 W/m2
16:02 20.3 °F 10.1 °F 30.23 in Calm   1.0 mph 64% 0.00 in 46 W/m2
16:08 20.3 °F 10.1 °F 30.23 in Calm   2.0 mph 64% 0.00 in 47 W/m2
16:14 20.4 °F 9.8 °F 30.23 in NNW 1.0 mph 1.0 mph 63% 0.00 in 37 W/m2
16:20 20.3 °F 9.7 °F 30.24 in NNW 1.0 mph 1.0 mph 63% 0.00 in 21 W/m2
16:26 20.2 °F 10.0 °F 30.24 in NNW 1.0 mph 1.0 mph 64% 0.00 in 14 W/m2
16:32 20.0 °F 9.8 °F 30.24 in Calm     64% 0.00 in 9 W/m2
16:38 19.8 °F 9.2 °F 30.24 in Calm     63% 0.00 in 9 W/m2
16:44 19.5 °F 9.3 °F 30.23 in Calm     64% 0.00 in 5 W/m2
16:50 19.1 °F 9.6 °F 30.23 in Calm     66% 0.00 in 5 W/m2
16:56 18.9 °F 9.7 °F 30.23 in Calm     67% 0.00 in 5 W/m2
17:02 18.6 °F 9.8 °F 30.23 in Calm     68% 0.00 in 0 W/m2
17:08 18.4 °F 9.9 °F 30.23 in Calm     69% 0.00 in 0 W/m2
17:14 18.2 °F 9.7 °F 30.23 in Calm     69% 0.00 in 0 W/m2
17:20 18.0 °F 9.9 °F 30.23 in Calm     70% 0.00 in 0 W/m2
17:26 17.8 °F 10.3 °F 30.23 in Calm     72% 0.00 in 0 W/m2
17:32 17.5 °F 10.0 °F 30.23 in Calm     72% 0.00 in 0 W/m2
17:38 17.3 °F 9.8 °F 30.23 in Calm     72% 0.00 in 0 W/m2
17:44 17.0 °F 9.8 °F 30.23 in Calm     73% 0.00 in 0 W/m2
17:50 16.5 °F 9.4 °F 30.23 in Calm     73% 0.00 in 0 W/m2
17:56 16.1 °F 9.0 °F 30.23 in Calm     73% 0.00 in 0 W/m2
18:02 16.0 °F 9.2 °F 30.23 in Calm     74% 0.00 in 0 W/m2
18:08 16.0 °F 9.5 °F 30.23 in Calm     75% 0.00 in 0 W/m2
18:14 16.1 °F 9.9 °F 30.23 in Calm     76% 0.00 in 0 W/m2
18:20 16.3 °F 9.8 °F 30.23 in Calm     75% 0.00 in 0 W/m2
18:26 17.2 °F 10.0 °F 30.23 in Calm     73% 0.00 in 0 W/m2
18:32 17.8 °F 10.0 °F 30.23 in Calm     71% 0.00 in 0 W/m2
18:38 18.4 °F 10.2 °F 30.23 in Calm   1.0 mph 70% 0.00 in 0 W/m2
18:44 18.8 °F 10.0 °F 30.23 in Calm   1.0 mph 68% 0.00 in 0 W/m2
18:50 19.1 °F 10.3 °F 30.23 in Calm     68% 0.00 in 0 W/m2
18:56 19.3 °F 9.8 °F 30.23 in West 1.0 mph 1.0 mph 66% 0.00 in 0 W/m2
19:02 19.4 °F 9.5 °F 30.22 in West 1.0 mph 2.0 mph 65% 0.00 in 0 W/m2
19:08 19.5 °F 9.3 °F 30.22 in West 2.0 mph 3.0 mph 64% 0.00 in 0 W/m2
19:14 19.5 °F 9.6 °F 30.22 in West 2.0 mph 5.0 mph 65% 0.00 in 0 W/m2
19:20 19.5 °F 9.3 °F 30.22 in SW 2.0 mph 3.0 mph 64% 0.00 in 0 W/m2
19:26 19.6 °F 8.7 °F 30.22 in WSW 2.0 mph 6.0 mph 62% 0.00 in 0 W/m2
19:32 19.6 °F 8.7 °F 30.22 in West 3.0 mph 4.0 mph 62% 0.00 in 0 W/m2
19:38 19.6 °F 8.3 °F 30.22 in WSW 3.0 mph 4.0 mph 61% 0.00 in 0 W/m2
19:44 19.5 °F 8.2 °F 30.22 in West 4.0 mph 6.0 mph 61% 0.00 in 0 W/m2
19:50 19.4 °F 8.1 °F 30.21 in West 3.0 mph 4.0 mph 61% 0.00 in 0 W/m2
19:56 19.4 °F 8.5 °F 30.21 in West 2.0 mph 5.0 mph 62% 0.00 in 0 W/m2
20:02 19.3 °F 8.0 °F 30.21 in WSW 3.0 mph 5.0 mph 61% 0.00 in 0 W/m2
20:08 19.1 °F 7.5 °F 30.21 in West 3.0 mph 5.0 mph 60% 0.00 in 0 W/m2
20:14 19.0 °F 7.7 °F 30.21 in NW 3.0 mph 4.0 mph 61% 0.00 in 0 W/m2
20:20 18.8 °F 7.6 °F 30.21 in West 3.0 mph 3.0 mph 61% 0.00 in 0 W/m2
20:26 18.6 °F 7.4 °F 30.21 in SW 3.0 mph 5.0 mph 61% 0.00 in 0 W/m2
20:32 18.4 °F 7.2 °F 30.21 in West 3.0 mph 3.0 mph 61% 0.00 in 0 W/m2
20:38 18.3 °F 6.7 °F 30.21 in West 3.0 mph 8.0 mph 60% 0.00 in 0 W/m2
20:44 18.1 °F 6.5 °F 30.21 in West 3.0 mph 3.0 mph 60% 0.00 in 0 W/m2
20:50 17.9 °F 6.0 °F 30.20 in WSW 4.0 mph 4.0 mph 59% 0.00 in 0 W/m2
20:56 17.7 °F 5.8 °F 30.20 in WNW 4.0 mph 7.0 mph 59% 0.00 in 0 W/m2
21:02 17.5 °F 6.0 °F 30.20 in WSW 3.0 mph 4.0 mph 60% 0.00 in 0 W/m2
21:08 17.3 °F 5.8 °F 30.20 in West 2.0 mph 5.0 mph 60% 0.00 in 0 W/m2
21:14 17.1 °F 5.9 °F 30.21 in WSW 2.0 mph 5.0 mph 61% 0.00 in 0 W/m2
21:20 16.9 °F 6.1 °F 30.21 in West 2.0 mph 3.0 mph 62% 0.00 in 0 W/m2
21:26 16.8 °F 6.0 °F 30.21 in WNW 2.0 mph 7.0 mph 62% 0.00 in 0 W/m2
21:32 16.7 °F 5.9 °F 30.21 in SW 3.0 mph 5.0 mph 62% 0.00 in 0 W/m2
21:38 16.7 °F 6.3 °F 30.21 in West 3.0 mph 5.0 mph 63% 0.00 in 0 W/m2
21:44 16.6 °F 6.2 °F 30.20 in West 3.0 mph 3.0 mph 63% 0.00 in 0 W/m2
21:50 16.4 °F 6.0 °F 30.20 in West 2.0 mph 3.0 mph 63% 0.00 in 0 W/m2
21:56 16.2 °F 5.8 °F 30.20 in West 2.0 mph 3.0 mph 63% 0.00 in 0 W/m2
22:02 16.0 °F 5.6 °F 30.20 in WSW 2.0 mph 2.0 mph 63% 0.00 in 0 W/m2
22:08 15.9 °F 5.5 °F 30.20 in WSW 2.0 mph 3.0 mph 63% 0.00 in 0 W/m2
22:14 15.9 °F 5.5 °F 30.19 in SW 3.0 mph 3.0 mph 63% 0.00 in 0 W/m2
22:20 15.9 °F 5.9 °F 30.19 in SW 3.0 mph 3.0 mph 64% 0.00 in 0 W/m2
22:26 16.1 °F 5.7 °F 30.19 in NW 3.0 mph 5.0 mph 63% 0.00 in 0 W/m2
22:32 16.2 °F 5.8 °F 30.19 in West 3.0 mph 5.0 mph 63% 0.00 in 0 W/m2
22:38 16.3 °F 5.5 °F 30.19 in WSW 4.0 mph 7.0 mph 62% 0.00 in 0 W/m2
22:44 16.3 °F 5.2 °F 30.19 in WSW 5.0 mph 6.0 mph 61% 0.00 in 0 W/m2
22:50 16.2 °F 4.7 °F 30.19 in WNW 4.0 mph 4.0 mph 60% 0.00 in 0 W/m2
22:56 16.2 °F 4.4 °F 30.19 in WNW 4.0 mph 4.0 mph 59% 0.00 in 0 W/m2
23:02 16.1 °F 4.3 °F 30.18 in WSW 5.0 mph 8.0 mph 59% 0.00 in 0 W/m2
23:08 16.0 °F 4.2 °F 30.18 in West 4.0 mph 8.0 mph 59% 0.00 in 0 W/m2
23:14 15.9 °F 4.1 °F 30.18 in WSW 4.0 mph 7.0 mph 59% 0.00 in 0 W/m2
23:20 15.9 °F 4.4 °F 30.18 in SW 4.0 mph 5.0 mph 60% 0.00 in 0 W/m2
23:26 15.9 °F 4.4 °F 30.18 in WSW 4.0 mph 5.0 mph 60% 0.00 in 0 W/m2
23:32 15.7 °F 3.9 °F 30.17 in SSW 5.0 mph 5.0 mph 59% 0.00 in 0 W/m2
23:38 15.6 °F 3.8 °F 30.17 in WSW 5.0 mph 5.0 mph 59% 0.00 in 0 W/m2
23:44 15.5 °F 3.7 °F 30.17 in WSW 5.0 mph 13.0 mph 59% 0.00 in 0 W/m2
23:50 15.4 °F 3.6 °F 30.17 in SW 5.0 mph 7.0 mph 59% 0.00 in 0 W/m2
23:56 15.2 °F 3.1 °F 30.17 in WSW 5.0 mph 8.0 mph 58% 0.00 in 0 W/m2
Country Meadow, Clay, NY, USA
Compliments of Weather Underground - 2 mb